Aktualne dane pomiarowe

Uwaga, wersja testowa! Automatyczne pobieranie danych za pomocą narzędzi lub skryptów to umożliwiających jest zabronione.

Dane meteo z obszaru Polski uzyskane na podstawie depesz SYNOP pobieranych co godzinę z NWS. Najedź myszką na symbol przedstawiony w tabeli, aby uzyskać informacje co do jego znaczenia. Prosimy pamiętać, że to testowa wersja strony, która jeszcze nie jest ukończona. Stworzono również jest krótki FAQ dotyczący korzystania z tej podstrony Anomalie temperatury w chwili obecnej odniesione są do okresu referencyjnego 1951-2016. Okres ten będzie później zmieniony na 1981-2010. Kliknij ikonę aby pobrać plik CSV. Kliknij ikonę aby wygenerować mapę synoptyczną dla danego terminu.

Wybierz Datę:    

        

Śnieżka (12510)

Dane terminowe dla wybranej stacji. Kliknij datę, aby otrzymać dane z tego terminu dla wszystkich stacji.

TemperaturaZachmurzenieWiatrCiśnienieOpadyPogoda
 Data t td wb tx tn tg rh  Nt Nl Cl Cm Ch ws wd g1 g2 wx mslp ppp ch 24h 12h t ww ww w1 w2  
2019-06-19 23:00:00 13.4 6.9 9.6--- 6550.0wx-wxwx6wx---- 836.7 -1.1---------
2019-06-19 22:00:00 13.9 7.9 10.3--- 6750.0wx-wxwx------ 837.2 -0.4---------
2019-06-19 21:00:00 14.2 8.8 10.9--- 7050.0wx-wxwx8wx---- 837.4 0.0---------
2019-06-19 20:00:00 14.6 9.0 11.2--- 6950.0wxwxwxwxwx5wx---- 837.8 0.4---------
2019-06-19 19:00:00 14.8 8.9 11.2--- 6850.0wxwxwxwxwx2wx---- 837.6 -0.4---------
2019-06-19 18:00:00 14.3 9.5 11.3 17.6 11.3- 7350.0wxwxwxwxwx3wx---- 837.4 -0.2- 0.012wx---
2019-06-19 17:00:00 15.1 10.5 12.2--- 7450.0wxwxwxwxwx4wx---- 837.4 -0.7---wx---
2019-06-19 16:00:00 16.0 9.4 12.0--- 6550.0wxwxwxwxwx3wx---- 838.0 -0.3---------
2019-06-19 15:00:00 16.4 10.0 12.5--- 6650.0wxwxwxwx3wx---- 837.6 -1.0---------
2019-06-19 14:00:00 17.4 9.6 12.7--- 6050.0wxwxwxwx4wx---- 838.1 -0.5---------
2019-06-19 13:00:00 16.7 9.4 12.3--- 6250.0wxwxwxwx5wx---- 838.3 -0.4---------
2019-06-19 12:00:00 15.8 9.9 12.1--- 6850.0wxwxwxwx5wx---- 838.6 -0.1- 0.06wx-w1--
2019-06-19 11:00:00 15.3 10.3 12.1--- 7250.0wxwxwxwx6wx---- 838.6 0.0---------
2019-06-19 10:00:00 14.8 9.8 11.7--- 7250.0wxwxwxwx5wx---- 838.7 -0.2---------
2019-06-19 09:00:00 13.7 10.5 11.6--- 8150.0wxwxwxwxwx6wx---- 838.7 -0.1---wx-w1--
2019-06-19 08:00:00 13.2 9.8 11.0--- 8050.0wxwxwxwx7wx---- 838.6 -0.1---------
2019-06-19 07:00:00 11.9 11.9 11.9--- 10040.0wxwxwxwxwx6wx---- 838.9 0.3---wx---
2019-06-19 06:00:00 11.3 11.3 11.2 11.7 10.5- 1000.9wxwxwxwx7wx---- 838.8 0.2- 0.012wx-- 12.5
2019-06-19 05:00:00 10.8 10.8 10.7--- 1000.1wx-8wx---- 838.7 -0.1---wx-w1w2--
2019-06-19 04:00:00 10.8 10.8 10.7--- 1000.6wxwxwx10wx---- 838.6 -0.8---wx-w1w2--
2019-06-19 03:00:00 10.7 10.7 10.6--- 1000.9wxwxwxwx10wx---- 838.6 -1.0---wx---
2019-06-19 02:00:00 10.7 10.7 10.6--- 1000.9wxwxwxwx11wx---- 838.8 -1.1---wx---
2019-06-19 01:00:00 11.1 10.5 10.6--- 9650.0wxwxwxwx9wx---- 839.4 -0.7---------
2019-06-19 00:00:00 11.0 10.4 10.5--- 9650.0wxwxwxwx7wx---- 839.6 -0.9- 0.06wx-w1--
2019-06-18 23:00:00 11.3 10.5 10.7--- 9550.0wxwxwxwx8wx---- 839.9 -0.8---------
2019-06-18 22:00:00 11.5 10.7 10.9--- 9540.0wxwxwxwx9wx---- 840.1 -0.3---------
2019-06-18 21:00:00 11.4 10.3 10.6--- 9340.0wxwxwxwx8wx---- 840.5 0.1---wx-w1--
2019-06-18 20:00:00 11.2 10.6 10.7--- 9630.0wxwxwxwxwx8wx---- 840.7 -0.1---wx---
2019-06-18 19:00:00 11.1 11.1 11.0--- 1000.9wxwxwxwxwx8wx---- 840.4 -0.6---wx-w1w2--
2019-06-18 18:00:00 11.6 11.1 11.2 15.9 8.1- 970.9wxwxwxwx6wx---- 840.4 -0.9- 0.012wx---
2019-06-18 17:00:00 12.0 10.9 11.2--- 9350.0wxwxwxwx6wx---- 840.8 -0.8---------
2019-06-18 16:00:00 14.7 9.7 11.6--- 7250.0wxwxwxwx4wx---- 841.0 -1.0---------
2019-06-18 15:00:00 15.3 8.1 11.0--- 6250.0wxwxwxwx5wx---- 841.3 -0.9---------
2019-06-18 14:00:00 14.1 7.4 10.1--- 6450.0wxwxwxwx4wx---- 841.6 -0.9---------
2019-06-18 13:00:00 15.5 8.0 11.1--- 6150.0wxwxwxwx3wx---- 842.0 -0.8---------
2019-06-18 12:00:00 13.7 6.8 9.7--- 6350.0wxwxwxwx4wx---- 842.2 -0.6- 0.06------
2019-06-18 11:00:00 12.7 6.5 9.1--- 6650.0wxwxwxwx4wx---- 842.5 -0.2---------
2019-06-18 10:00:00 11.8 6.9 8.8--- 7250.0wxwxwxwx3wx---- 842.8 0.6---------
2019-06-18 09:00:00 10.8 5.3 7.6--- 6950.0wxwxwxwx5wx---- 842.8 1.2---------
2019-06-18 08:00:00 10.0 5.4 7.3--- 7350.0wxwxwxwx6wx---- 842.7 1.0---------
2019-06-18 07:00:00 8.6 7.2 7.6--- 9150.0wxwxwxwx8wx---- 842.2 0.5---------
2019-06-18 06:00:00 8.1 7.5 7.6 10.5 7.9- 9650.0wxwxwxwx11wx---- 841.6 -0.3- 0.012----- 14.5
2019-06-18 05:00:00 8.2 6.0 6.8--- 8650.0wx-wx11wx---- 841.7 -0.4---------
2019-06-18 04:00:00 9.0 5.6 6.9--- 7950.0wx-wx11wx---- 841.7 -0.7---------
2019-06-18 03:00:00 9.0 5.9 7.1--- 8150.0wx-wx10wx---- 841.9 -0.5---------
2019-06-18 02:00:00 9.0 6.1 7.2--- 8250.0wx-wx10wx---- 842.1 -0.6---------
2019-06-18 01:00:00 8.6 6.2 7.0--- 8550.0wx-wx11wx---- 842.4 -1.0---------
2019-06-18 00:00:00 8.9 6.3 7.2--- 8450.0wx-wx12wx---- 842.4 -1.2- 0.06------
1.7 ms

 

Print Friendly, PDF & Email